Time;durP1;ratioP1;P1;durP2;ratioP2;P2;SDS_P1;SDS_P2;PMS_P1;PMS_P2;Temp;Humidity;BMP_temperature;BMP_pressure;BME280_temperature;BME280_humidity;BME280_pressure;Samples;Min_cycle;Max_cycle;Signal;HPM_P1;HPM_P2
2021/07/30 00:00:11;;;;;;;;;;;;;;;;;;5009372;28;20012;-67
2021/07/30 00:02:38;;;;;;;;;;;;;;;;;;5010971;28;20017;-67
2021/07/30 00:05:07;;;;;;;;;;;;;;;;;;5009509;28;21447;-67
2021/07/30 00:07:34;;;;;;;;;;;;;;;;;;5006818;28;20397;-67
2021/07/30 00:10:01;;;;;;;;;;;;;;;;;;5008356;28;19956;-67
2021/07/30 00:12:28;;;;;;;;;;;;;;;;;;5011517;28;19932;-68
2021/07/30 00:14:55;;;;;;;;;;;;;;;;;;5010134;28;19926;-67
2021/07/30 00:17:22;;;;;;;;;;;;;;;;;;5010788;28;19984;-67
2021/07/30 00:19:49;;;;;;;;;;;;;;;;;;5009223;28;19935;-68
2021/07/30 00:22:16;;;;;;;;;;;;;;;;;;5010322;28;19925;-67
2021/07/30 00:24:43;;;;;;;;;;;;;;;;;;5010698;28;19933;-67
2021/07/30 00:27:12;;;;;;;;;;;;;;;;;;5010609;28;19925;-67
2021/07/30 00:29:39;;;;;;;;;;;;;;;;;;5010783;28;19932;-67
2021/07/30 00:32:06;;;;;;;;;;;;;;;;;;5011062;28;19948;-67
2021/07/30 00:34:33;;;;;;;;;;;;;;;;;;5008977;28;20297;-67
2021/07/30 00:37:00;;;;;;;;;;;;;;;;;;5008413;28;19925;-67
2021/07/30 00:39:27;;;;;;;;;;;;;;;;;;5010511;28;19935;-67
2021/07/30 00:41:54;;;;;;;;;;;;;;;;;;5010763;28;20321;-67
2021/07/30 00:44:21;;;;;;;;;;;;;;;;;;5010153;28;19932;-67
2021/07/30 00:46:48;;;;;;;;;;;;;;;;;;5011047;28;19956;-67
2021/07/30 00:49:16;;;;;;;;;;;;;;;;;;5008189;28;19933;-67
2021/07/30 00:51:43;;;;;;;;;;;;;;;;;;5011143;28;20038;-68
2021/07/30 00:54:12;;;;;;;;;;;;;;;;;;5011211;28;19926;-67
2021/07/30 00:56:39;;;;;;;;;;;;;;;;;;5004180;28;19930;-68
2021/07/30 00:59:06;;;;;;;;;;;;;;;;;;5009187;28;19925;-69
2021/07/30 01:01:32;;;;;;;;;;;;;;;;;;5009655;28;20012;-68
2021/07/30 01:04:02;;;;;;;;;;;;;;;;;;5003345;28;20390;-68
2021/07/30 01:06:29;;;;;;;;;;;;;;;;;;5009544;28;20328;-68
2021/07/30 01:08:56;;;;;;;;;;;;;;;;;;5008035;28;19993;-68
2021/07/30 01:11:23;;;;;;;;;;;;;;;;;;5008151;28;20393;-68
2021/07/30 01:13:50;;;;;;;;;;;;;;;;;;5009774;28;19925;-67
2021/07/30 01:16:17;;;;;;;;;;;;;;;;;;5008553;28;19925;-68
2021/07/30 01:18:44;;;;;;;;;;;;;;;;;;5009551;28;19925;-68
2021/07/30 01:21:11;;;;;;;;;;;;;;;;;;5007966;28;19934;-68
2021/07/30 01:23:38;;;;;;;;;;;;;;;;;;5009127;28;19933;-65
2021/07/30 01:26:05;;;;;;;;;;;;;;;;;;5007620;28;19940;-65
2021/07/30 01:28:32;;;;;;;;;;;;;;;;;;5008512;28;20631;-66
2021/07/30 01:30:59;;;;;;;;;;;;;;;;;;5008450;28;19936;-65
2021/07/30 01:33:26;;;;;;;;;;;;;;;;;;5009195;28;19926;-66
2021/07/30 01:35:53;;;;;;;;;;;;;;;;;;5009174;28;19933;-67
2021/07/30 01:38:20;;;;;;;;;;;;;;;;;;5009339;28;20298;-67
2021/07/30 01:40:47;;;;;;;;;;;;;;;;;;5007675;28;20290;-67
2021/07/30 01:43:14;;;;;;;;;;;;;;;;;;5009899;28;19948;-66
2021/07/30 01:45:41;;;;;;;;;;;;;;;;;;5007369;28;19929;-66
2021/07/30 01:48:08;;;;;;;;;;;;;;;;;;5008067;28;19925;-67
2021/07/30 01:50:35;;;;;;;;;;;;;;;;;;5008353;28;19935;-67
2021/07/30 01:53:02;;;;;;;;;;;;;;;;;;5007162;28;19926;-67
2021/07/30 01:55:29;;;;;;;;;;;;;;;;;;5006393;28;19933;-66
2021/07/30 01:57:56;;;;;;;;;;;;;;;;;;5008361;28;20192;-67
2021/07/30 02:00:23;;;;;;;;;;;;;;;;;;5004043;28;19926;-67
2021/07/30 02:02:50;;;;;;;;;;;;;;;;;;5008789;28;19925;-66
2021/07/30 02:05:17;;;;;;;;;;;;;;;;;;5001255;28;20301;-67
2021/07/30 02:07:44;;;;;;;;;;;;;;;;;;5009988;28;20008;-67
2021/07/30 02:10:11;;;;;;;;;;;;;;;;;;5006478;28;19932;-66
2021/07/30 02:15:18;;;;;;;;;;;;;;;;;;5013767;28;19934;-67
2021/07/30 02:17:45;;;;;;;;;;;;;;;;;;5010998;28;20025;-66
2021/07/30 02:20:12;;;;;;;;;;;;;;;;;;5009498;28;19925;-66
2021/07/30 02:22:39;;;;;;;;;;;;;;;;;;5011009;28;20405;-66
2021/07/30 02:25:06;;;;;;;;;;;;;;;;;;5019049;28;19926;-67
2021/07/30 02:27:33;;;;;;;;;;;;;;;;;;5027034;28;19925;-67
2021/07/30 02:30:00;;;;;;;;;;;;;;;;;;5021495;28;19931;-67
2021/07/30 02:32:27;;;;;;;;;;;;;;;;;;5012708;28;19926;-67
2021/07/30 02:34:54;;;;;;;;;;;;;;;;;;5011922;28;19929;-66
2021/07/30 02:37:21;;;;;;;;;;;;;;;;;;5011375;28;20035;-66
2021/07/30 02:39:48;;;;;;;;;;;;;;;;;;5010684;28;19933;-67
2021/07/30 02:42:15;;;;;;;;;;;;;;;;;;5012645;28;19936;-66
2021/07/30 02:44:42;;;;;;;;;;;;;;;;;;5008785;28;20008;-67
2021/07/30 02:47:09;;;;;;;;;;;;;;;;;;5011689;28;19925;-66
2021/07/30 02:49:36;;;;;;;;;;;;;;;;;;5008270;28;20028;-66
2021/07/30 02:52:03;;;;;;;;;;;;;;;;;;5010828;28;19925;-66
2021/07/30 02:54:30;;;;;;;;;;;;;;;;;;5011613;28;20388;-67
2021/07/30 02:56:57;;;;;;;;;;;;;;;;;;5012787;28;20019;-67
2021/07/30 02:59:24;;;;;;;;;;;;;;;;;;5012981;28;19926;-67
2021/07/30 03:01:50;;;;;;;;;;;;;;;;;;5012521;28;19933;-67
2021/07/30 03:04:17;;;;;;;;;;;;;;;;;;5010960;28;21433;-67
2021/07/30 03:06:44;;;;;;;;;;;;;;;;;;5011745;28;19933;-66
2021/07/30 03:09:11;;;;;;;;;;;;;;;;;;5011086;28;19933;-66
2021/07/30 03:11:38;;;;;;;;;;;;;;;;;;5012106;28;20452;-67
2021/07/30 03:14:05;;;;;;;;;;;;;;;;;;5013089;28;19976;-67
2021/07/30 03:16:32;;;;;;;;;;;;;;;;;;5013382;28;19932;-67
2021/07/30 03:19:00;;;;;;;;;;;;;;;;;;5012573;28;19925;-66
2021/07/30 03:21:27;;;;;;;;;;;;;;;;;;5012964;28;19930;-67
2021/07/30 03:23:54;;;;;;;;;;;;;;;;;;5010933;28;20174;-67
2021/07/30 03:26:21;;;;;;;;;;;;;;;;;;5012696;28;19972;-67
2021/07/30 03:28:48;;;;;;;;;;;;;;;;;;5010539;28;19925;-67
2021/07/30 03:31:15;;;;;;;;;;;;;;;;;;5010786;28;19936;-67
2021/07/30 03:33:42;;;;;;;;;;;;;;;;;;5010717;28;20198;-67
2021/07/30 03:36:10;;;;;;;;;;;;;;;;;;5012094;28;19930;-67
2021/07/30 03:41:05;;;;;;;;;;;;;;;;;;4957797;28;19927;-67
2021/07/30 03:43:32;;;;;;;;;;;;;;;;;;4952356;28;19949;-67
2021/07/30 03:45:59;;;;;;;;;;;;;;;;;;4956230;28;19942;-67
2021/07/30 03:48:26;;;;;;;;;;;;;;;;;;4951697;28;19926;-67
2021/07/30 03:50:53;;;;;;;;;;;;;;;;;;4933540;28;19937;-66
2021/07/30 03:53:20;;;;;;;;;;;;;;;;;;4936048;28;19942;-67
2021/07/30 03:55:47;;;;;;;;;;;;;;;;;;4937948;29;20407;-67
2021/07/30 03:58:14;;;;;;;;;;;;;;;;;;4932370;29;20279;-67
2021/07/30 04:00:41;;;;;;;;;;;;;;;;;;4937994;28;19934;-67
2021/07/30 04:03:08;;;;;;;;;;;;;;;;;;4933738;29;19931;-67
2021/07/30 04:05:35;;;;;;;;;;;;;;;;;;4931043;29;19931;-67
2021/07/30 04:08:04;;;;;;;;;;;;;;;;;;4935223;29;19946;-67
2021/07/30 04:10:32;;;;;;;;;;;;;;;;;;4948473;28;19977;-67
2021/07/30 04:12:59;;;;;;;;;;;;;;;;;;4944554;28;19927;-67
2021/07/30 04:15:26;;;;;;;;;;;;;;;;;;4933811;29;19933;-67
2021/07/30 04:17:53;;;;;;;;;;;;;;;;;;4936329;28;19926;-67
2021/07/30 04:20:20;;;;;;;;;;;;;;;;;;4937527;28;19972;-68
2021/07/30 04:22:47;;;;;;;;;;;;;;;;;;4935085;28;19931;-67
2021/07/30 04:25:13;;;;;;;;;;;;;;;;;;4937634;28;19934;-67
2021/07/30 04:27:40;;;;;;;;;;;;;;;;;;4936498;28;20395;-67
2021/07/30 04:30:07;;;;;;;;;;;;;;;;;;4936161;28;19926;-67
2021/07/30 04:32:34;;;;;;;;;;;;;;;;;;4935826;28;19926;-67
2021/07/30 04:35:01;;;;;;;;;;;;;;;;;;4936501;28;19933;-67
2021/07/30 04:37:28;;;;;;;;;;;;;;;;;;4934148;28;19934;-67
2021/07/30 04:39:55;;;;;;;;;;;;;;;;;;4935980;28;20403;-67
2021/07/30 04:42:22;;;;;;;;;;;;;;;;;;4934769;28;20460;-67
2021/07/30 04:44:49;;;;;;;;;;;;;;;;;;4938845;28;19965;-66
2021/07/30 04:47:16;;;;;;;;;;;;;;;;;;4931494;28;19927;-66
2021/07/30 04:49:43;;;;;;;;;;;;;;;;;;4931547;29;19927;-66
2021/07/30 04:52:10;;;;;;;;;;;;;;;;;;4928486;29;20305;-66
2021/07/30 04:54:37;;;;;;;;;;;;;;;;;;4938259;29;19926;-66
2021/07/30 04:57:04;;;;;;;;;;;;;;;;;;4934098;29;19945;-66
2021/07/30 04:59:31;;;;;;;;;;;;;;;;;;4929645;29;19934;-67
2021/07/30 05:01:58;;;;;;;;;;;;;;;;;;4930474;29;19927;-66
2021/07/30 05:04:25;;;;;;;;;;;;;;;;;;4929556;29;20103;-66
2021/07/30 05:06:52;;;;;;;;;;;;;;;;;;4931751;29;20306;-67
2021/07/30 05:09:19;;;;;;;;;;;;;;;;;;4928915;29;19935;-67
2021/07/30 05:11:46;;;;;;;;;;;;;;;;;;4927041;28;19930;-67
2021/07/30 05:14:13;;;;;;;;;;;;;;;;;;4931526;29;19935;-67
2021/07/30 05:16:40;;;;;;;;;;;;;;;;;;4936545;28;19927;-67
2021/07/30 05:19:07;;;;;;;;;;;;;;;;;;4953161;28;20282;-67
2021/07/30 05:21:35;;;;;;;;;;;;;;;;;;4934981;29;19927;-67
2021/07/30 05:24:05;;;;;;;;;;;;;;;;;;4937901;29;19938;-67
2021/07/30 05:26:32;;;;;;;;;;;;;;;;;;4935027;29;19938;-67
2021/07/30 05:28:59;;;;;;;;;;;;;;;;;;4929691;29;20286;-67
2021/07/30 05:31:26;;;;;;;;;;;;;;;;;;4934579;28;19927;-67
2021/07/30 05:33:53;;;;;;;;;;;;;;;;;;4934452;28;19927;-67
2021/07/30 05:36:20;;;;;;;;;;;;;;;;;;4931067;28;19934;-67
2021/07/30 05:38:47;;;;;;;;;;;;;;;;;;4929557;28;19927;-68
2021/07/30 05:41:14;;;;;;;;;;;;;;;;;;4934608;28;19970;-67
2021/07/30 05:43:41;;;;;;;;;;;;;;;;;;4939977;28;19950;-67
2021/07/30 05:46:08;;;;;;;;;;;;;;;;;;4934581;28;20306;-67
2021/07/30 05:48:35;;;;;;;;;;;;;;;;;;4935968;28;19940;-67
2021/07/30 05:51:02;;;;;;;;;;;;;;;;;;4933324;28;19927;-67
2021/07/30 05:53:29;;;;;;;;;;;;;;;;;;4940401;28;19990;-67
2021/07/30 05:55:56;;;;;;;;;;;;;;;;;;4935520;28;19935;-68
2021/07/30 05:58:23;;;;;;;;;;;;;;;;;;4937611;28;19927;-68
2021/07/30 06:00:50;;;;;;;;;;;;;;;;;;4935752;28;20289;-67
2021/07/30 06:03:17;;;;;;;;;;;;;;;;;;4941969;28;19949;-68
2021/07/30 06:05:43;;;;;;;;;;;;;;;;;;4939358;28;19931;-67
2021/07/30 06:08:11;;;;;;;;;;;;;;;;;;4939825;28;20390;-67
2021/07/30 06:10:38;;;;;;;;;;;;;;;;;;4934338;28;20374;-67
2021/07/30 06:13:05;;;;;;;;;;;;;;;;;;4933350;28;20306;-67
2021/07/30 06:15:32;;;;;;;;;;;;;;;;;;4937742;28;20177;-66
2021/07/30 06:17:58;;;;;;;;;;;;;;;;;;4937303;28;19927;-66
2021/07/30 06:20:25;;;;;;;;;;;;;;;;;;4932386;28;19927;-66
2021/07/30 06:22:52;;;;;;;;;;;;;;;;;;4938729;28;19941;-66
2021/07/30 06:25:19;;;;;;;;;;;;;;;;;;4930178;28;19935;-66
2021/07/30 06:27:46;;;;;;;;;;;;;;;;;;4923084;28;20294;-66
2021/07/30 06:30:13;;;;;;;;;;;;;;;;;;4949645;28;19935;-66
2021/07/30 06:32:40;;;;;;;;;;;;;;;;;;4952090;28;19927;-66
2021/07/30 06:35:07;;;;;;;;;;;;;;;;;;4928156;28;19935;-67
2021/07/30 06:37:34;;;;;;;;;;;;;;;;;;4929838;28;19934;-67
2021/07/30 06:40:01;;;;;;;;;;;;;;;;;;4930527;28;19931;-67
2021/07/30 06:42:28;;;;;;;;;;;;;;;;;;4967562;28;20381;-66
2021/07/30 06:44:55;;;;;;;;;;;;;;;;;;4936588;28;19965;-66
2021/07/30 06:47:23;;;;;;;;;;;;;;;;;;4961403;28;19927;-66
2021/07/30 06:49:50;;;;;;;;;;;;;;;;;;4943020;28;19931;-66
2021/07/30 06:52:17;;;;;;;;;;;;;;;;;;4930126;28;19934;-67
2021/07/30 06:54:44;;;;;;;;;;;;;;;;;;4932312;28;20111;-67
2021/07/30 06:57:11;;;;;;;;;;;;;;;;;;4930909;28;19926;-66
2021/07/30 06:59:38;;;;;;;;;;;;;;;;;;4930037;28;20318;-67
2021/07/30 07:02:05;;;;;;;;;;;;;;;;;;4942258;28;19953;-66
2021/07/30 07:04:32;;;;;;;;;;;;;;;;;;4937345;28;19926;-67
2021/07/30 07:06:59;;;;;;;;;;;;;;;;;;4948340;28;19933;-67
2021/07/30 07:09:26;;;;;;;;;;;;;;;;;;4928638;28;19937;-67
2021/07/30 07:11:53;;;;;;;;;;;;;;;;;;4932343;28;19934;-66
2021/07/30 07:14:20;;;;;;;;;;;;;;;;;;4932843;28;20195;-67
2021/07/30 07:16:46;;;;;;;;;;;;;;;;;;4949194;28;19925;-67
2021/07/30 07:19:13;;;;;;;;;;;;;;;;;;4956675;28;19927;-68
2021/07/30 07:21:40;;;;;;;;;;;;;;;;;;4937180;28;19927;-68
2021/07/30 07:24:07;;;;;;;;;;;;;;;;;;4940049;28;20412;-67
2021/07/30 07:26:34;;;;;;;;;;;;;;;;;;4951407;28;20326;-68
2021/07/30 07:29:01;;;;;;;;;;;;;;;;;;4951606;28;19933;-68
2021/07/30 07:31:28;;;;;;;;;;;;;;;;;;4943978;28;19931;-66
2021/07/30 07:33:55;;;;;;;;;;;;;;;;;;4968953;28;19925;-67
2021/07/30 07:36:22;;;;;;;;;;;;;;;;;;4935814;28;19935;-67
2021/07/30 07:38:49;;;;;;;;;;;;;;;;;;4950577;28;20413;-67
2021/07/30 07:41:16;;;;;;;;;;;;;;;;;;4950790;28;19931;-67
2021/07/30 07:43:43;;;;;;;;;;;;;;;;;;4921678;28;20384;-68
2021/07/30 07:46:10;;;;;;;;;;;;;;;;;;4933767;28;19937;-68
2021/07/30 07:48:37;;;;;;;;;;;;;;;;;;4933234;28;19927;-68
2021/07/30 07:51:04;;;;;;;;;;;;;;;;;;4933814;28;20302;-68
2021/07/30 07:53:31;;;;;;;;;;;;;;;;;;4960014;28;20401;-66
2021/07/30 07:55:58;;;;;;;;;;;;;;;;;;4950759;28;19924;-67
2021/07/30 07:58:25;;;;;;;;;;;;;;;;;;4928544;28;19927;-64
2021/07/30 08:00:52;;;;;;;;;;;;;;;;;;4931785;28;19927;-68
2021/07/30 08:03:19;;;;;;;;;;;;;;;;;;4931398;28;19938;-68
2021/07/30 08:05:46;;;;;;;;;;;;;;;;;;4943393;28;20391;-68
2021/07/30 08:08:13;;;;;;;;;;;;;;;;;;4928719;28;19969;-68
2021/07/30 08:10:40;;;;;;;;;;;;;;;;;;4927278;28;19933;-69
2021/07/30 08:13:07;;;;;;;;;;;;;;;;;;4929174;28;20391;-70
2021/07/30 08:15:34;;;;;;;;;;;;;;;;;;4948299;28;19937;-70
2021/07/30 08:18:01;;;;;;;;;;;;;;;;;;4953274;28;19926;-69
2021/07/30 08:20:28;;;;;;;;;;;;;;;;;;4925896;28;19926;-70
2021/07/30 08:22:55;;;;;;;;;;;;;;;;;;4977088;28;19925;-68
2021/07/30 08:25:22;;;;;;;;;;;;;;;;;;4931329;28;20381;-69
2021/07/30 08:27:49;;;;;;;;;;;;;;;;;;4930393;28;19953;-69
2021/07/30 08:30:16;;;;;;;;;;;;;;;;;;4941810;28;19926;-70
2021/07/30 08:32:43;;;;;;;;;;;;;;;;;;4929574;28;19926;-69
2021/07/30 08:35:10;;;;;;;;;;;;;;;;;;4933084;28;20429;-68
2021/07/30 08:37:37;;;;;;;;;;;;;;;;;;4924658;28;19933;-70
2021/07/30 08:40:04;;;;;;;;;;;;;;;;;;4937027;28;19934;-69
2021/07/30 08:42:31;;;;;;;;;;;;;;;;;;4929864;28;19945;-68
2021/07/30 08:44:58;;;;;;;;;;;;;;;;;;4920505;28;20026;-69
2021/07/30 08:47:24;;;;;;;;;;;;;;;;;;4935598;28;20022;-69
2021/07/30 08:49:52;;;;;;;;;;;;;;;;;;4935240;28;19942;-69
2021/07/30 08:52:18;;;;;;;;;;;;;;;;;;4932228;28;20022;-68
2021/07/30 08:54:45;;;;;;;;;;;;;;;;;;4939231;28;20118;-69
2021/07/30 08:57:12;;;;;;;;;;;;;;;;;;4928625;28;20342;-69
2021/07/30 08:59:39;;;;;;;;;;;;;;;;;;4947198;28;19941;-70
2021/07/30 09:02:06;;;;;;;;;;;;;;;;;;4930722;28;20328;-69
2021/07/30 09:04:33;;;;;;;;;;;;;;;;;;4930501;28;19927;-68
2021/07/30 09:07:02;;;;;;;;;;;;;;;;;;4954655;28;19950;-68
2021/07/30 09:09:29;;;;;;;;;;;;;;;;;;4941097;28;20025;-66
2021/07/30 09:11:56;;;;;;;;;;;;;;;;;;4925224;28;19988;-69
2021/07/30 09:14:23;;;;;;;;;;;;;;;;;;4877562;28;19938;-68
2021/07/30 09:16:50;;;;;;;;;;;;;;;;;;4825346;28;20299;-69
2021/07/30 09:19:17;;;;;;;;;;;;;;;;;;4840437;28;20876;-69
2021/07/30 09:21:44;;;;;;;;;;;;;;;;;;4891033;28;19937;-68
2021/07/30 09:24:11;;;;;;;;;;;;;;;;;;4905627;28;19934;-68
2021/07/30 09:26:38;;;;;;;;;;;;;;;;;;4905073;28;19931;-67
2021/07/30 09:29:05;;;;;;;;;;;;;;;;;;4904530;28;19934;-68
2021/07/30 09:31:32;;;;;;;;;;;;;;;;;;4902602;28;19927;-68
2021/07/30 09:33:59;;;;;;;;;;;;;;;;;;4904054;28;19931;-68
2021/07/30 09:36:26;;;;;;;;;;;;;;;;;;4903895;28;19931;-68
2021/07/30 09:38:53;;;;;;;;;;;;;;;;;;4916138;28;19933;-68
2021/07/30 09:41:20;;;;;;;;;;;;;;;;;;4907417;28;20444;-69
2021/07/30 09:43:47;;;;;;;;;;;;;;;;;;4910618;28;20522;-69
2021/07/30 09:46:15;;;;;;;;;;;;;;;;;;4911462;28;19928;-69
2021/07/30 09:48:42;;;;;;;;;;;;;;;;;;4914064;28;19927;-69
2021/07/30 09:51:09;;;;;;;;;;;;;;;;;;4903490;28;19936;-69
2021/07/30 09:53:35;;;;;;;;;;;;;;;;;;4907939;28;19927;-69
2021/07/30 09:56:02;;;;;;;;;;;;;;;;;;4916614;28;19932;-69
2021/07/30 09:58:29;;;;;;;;;;;;;;;;;;4909159;28;19931;-69
2021/07/30 10:00:56;;;;;;;;;;;;;;;;;;4909050;28;19935;-70
2021/07/30 10:03:23;;;;;;;;;;;;;;;;;;4906964;28;19927;-68
2021/07/30 10:05:50;;;;;;;;;;;;;;;;;;4910805;28;20399;-70
2021/07/30 10:08:17;;;;;;;;;;;;;;;;;;4917167;28;19938;-69
2021/07/30 10:10:44;;;;;;;;;;;;;;;;;;4918447;28;19984;-69
2021/07/30 10:13:16;;;;;;;;;;;;;;;;;;4920071;28;20487;-69
2021/07/30 10:15:43;;;;;;;;;;;;;;;;;;4919424;28;20856;-70
2021/07/30 10:18:10;;;;;;;;;;;;;;;;;;4911704;28;19928;-68
2021/07/30 10:20:37;;;;;;;;;;;;;;;;;;4916104;28;19973;-68
2021/07/30 10:23:04;;;;;;;;;;;;;;;;;;4915847;28;19934;-68
2021/07/30 10:25:31;;;;;;;;;;;;;;;;;;4907694;28;20410;-68
2021/07/30 10:27:58;;;;;;;;;;;;;;;;;;4912125;28;19932;-69
2021/07/30 10:30:25;;;;;;;;;;;;;;;;;;4906439;28;19927;-68
2021/07/30 10:32:52;;;;;;;;;;;;;;;;;;4910460;28;19934;-68
2021/07/30 10:35:19;;;;;;;;;;;;;;;;;;4909909;28;19933;-68
2021/07/30 10:37:46;;;;;;;;;;;;;;;;;;4905537;28;19978;-68
2021/07/30 10:40:13;;;;;;;;;;;;;;;;;;4903793;28;19934;-68
2021/07/30 10:42:40;;;;;;;;;;;;;;;;;;4914030;28;19925;-68
2021/07/30 10:45:07;;;;;;;;;;;;;;;;;;4928062;28;21274;-69
2021/07/30 10:47:36;;;;;;;;;;;;;;;;;;4929078;28;19927;-69
2021/07/30 10:50:03;;;;;;;;;;;;;;;;;;4905777;28;19935;-70
2021/07/30 10:52:30;;;;;;;;;;;;;;;;;;4920487;28;20315;-67
2021/07/30 10:54:57;;;;;;;;;;;;;;;;;;4914584;28;20442;-67
2021/07/30 10:57:24;;;;;;;;;;;;;;;;;;4914024;28;19927;-68
2021/07/30 10:59:51;;;;;;;;;;;;;;;;;;4911243;28;20379;-66
2021/07/30 11:02:18;;;;;;;;;;;;;;;;;;4906304;28;19931;-67
2021/07/30 11:04:45;;;;;;;;;;;;;;;;;;4903872;28;20323;-68
2021/07/30 11:07:12;;;;;;;;;;;;;;;;;;4901307;28;19975;-67
2021/07/30 11:09:39;;;;;;;;;;;;;;;;;;4901057;28;20425;-67
2021/07/30 11:12:07;;;;;;;;;;;;;;;;;;4905325;28;19945;-68
2021/07/30 11:14:34;;;;;;;;;;;;;;;;;;4902203;28;19958;-68
2021/07/30 11:17:01;;;;;;;;;;;;;;;;;;4902461;28;19928;-68
2021/07/30 11:19:28;;;;;;;;;;;;;;;;;;4899953;28;19939;-68
2021/07/30 11:21:55;;;;;;;;;;;;;;;;;;4910010;28;19934;-68
2021/07/30 11:24:22;;;;;;;;;;;;;;;;;;4904585;28;20002;-68
2021/07/30 11:26:49;;;;;;;;;;;;;;;;;;4904676;28;19927;-68
2021/07/30 11:29:16;;;;;;;;;;;;;;;;;;4903211;28;19934;-67
2021/07/30 11:31:43;;;;;;;;;;;;;;;;;;4906410;28;20320;-69
2021/07/30 11:34:10;;;;;;;;;;;;;;;;;;4898919;28;19935;-68
2021/07/30 11:36:37;;;;;;;;;;;;;;;;;;4903691;28;19928;-68
2021/07/30 11:39:04;;;;;;;;;;;;;;;;;;4905814;28;19934;-69
2021/07/30 11:41:31;;;;;;;;;;;;;;;;;;4908883;28;20018;-68
2021/07/30 11:43:58;;;;;;;;;;;;;;;;;;4907152;28;19931;-66
2021/07/30 11:46:25;;;;;;;;;;;;;;;;;;4904203;28;19927;-66
2021/07/30 11:48:52;;;;;;;;;;;;;;;;;;4903143;28;20455;-67
2021/07/30 11:51:19;;;;;;;;;;;;;;;;;;4906866;28;20276;-67
2021/07/30 11:53:46;;;;;;;;;;;;;;;;;;4911972;28;19928;-66
2021/07/30 11:56:17;;;;;;;;;;;;;;;;;;4901571;28;19935;-66
2021/07/30 11:58:44;;;;;;;;;;;;;;;;;;4901754;28;19990;-67
2021/07/30 12:01:11;;;;;;;;;;;;;;;;;;4907707;28;19935;-68
2021/07/30 12:03:38;;;;;;;;;;;;;;;;;;4905084;28;19931;-66
2021/07/30 12:06:05;;;;;;;;;;;;;;;;;;4896876;28;19934;-66
2021/07/30 12:08:32;;;;;;;;;;;;;;;;;;4896526;28;20391;-64
2021/07/30 12:10:59;;;;;;;;;;;;;;;;;;4898974;28;20300;-65
2021/07/30 12:13:26;;;;;;;;;;;;;;;;;;4898879;28;19938;-63
2021/07/30 12:15:53;;;;;;;;;;;;;;;;;;4904869;28;20719;-63
2021/07/30 12:18:20;;;;;;;;;;;;;;;;;;4898881;28;19927;-63
2021/07/30 12:20:48;;;;;;;;;;;;;;;;;;4896834;28;19927;-62
2021/07/30 12:23:16;;;;;;;;;;;;;;;;;;4902139;28;19953;-64
2021/07/30 12:25:45;;;;;;;;;;;;;;;;;;4901373;28;20315;-64
2021/07/30 12:28:12;;;;;;;;;;;;;;;;;;4901610;28;20013;-64
2021/07/30 12:30:40;;;;;;;;;;;;;;;;;;4898099;28;19927;-64
2021/07/30 12:33:07;;;;;;;;;;;;;;;;;;4904420;28;19953;-64
2021/07/30 12:35:34;;;;;;;;;;;;;;;;;;4908743;28;19934;-64
2021/07/30 12:38:01;;;;;;;;;;;;;;;;;;4903283;28;19937;-64
2021/07/30 12:40:28;;;;;;;;;;;;;;;;;;4901036;28;20380;-64
2021/07/30 12:42:55;;;;;;;;;;;;;;;;;;4899281;28;19934;-64
2021/07/30 12:45:22;;;;;;;;;;;;;;;;;;4899183;28;19940;-64
2021/07/30 12:47:49;;;;;;;;;;;;;;;;;;4904288;28;19927;-65
2021/07/30 12:50:16;;;;;;;;;;;;;;;;;;4907578;28;20294;-64
2021/07/30 12:52:43;;;;;;;;;;;;;;;;;;4905846;28;19956;-64
2021/07/30 12:55:10;;;;;;;;;;;;;;;;;;4908313;28;20054;-64
2021/07/30 12:57:37;;;;;;;;;;;;;;;;;;4905067;28;20372;-65
2021/07/30 13:00:08;;;;;;;;;;;;;;;;;;4906915;28;19935;-64
2021/07/30 13:02:37;;;;;;;;;;;;;;;;;;4918147;28;19940;-64
2021/07/30 13:05:06;;;;;;;;;;;;;;;;;;4901910;28;20012;-65
2021/07/30 13:07:33;;;;;;;;;;;;;;;;;;4918719;28;19935;-66
2021/07/30 13:10:00;;;;;;;;;;;;;;;;;;4909462;28;19927;-65
2021/07/30 13:12:27;;;;;;;;;;;;;;;;;;4909664;28;19943;-63
2021/07/30 13:14:54;;;;;;;;;;;;;;;;;;4909132;28;19927;-64
2021/07/30 13:17:22;;;;;;;;;;;;;;;;;;4906238;28;19935;-61
2021/07/30 13:19:49;;;;;;;;;;;;;;;;;;4904602;28;19939;-63
2021/07/30 13:22:16;;;;;;;;;;;;;;;;;;4905993;28;19931;-62
2021/07/30 13:24:43;;;;;;;;;;;;;;;;;;4905636;28;19931;-62
2021/07/30 13:27:10;;;;;;;;;;;;;;;;;;4905052;28;19933;-63
2021/07/30 13:29:37;;;;;;;;;;;;;;;;;;4913704;28;19927;-65
2021/07/30 13:32:04;;;;;;;;;;;;;;;;;;4914958;28;19934;-64
2021/07/30 13:34:31;;;;;;;;;;;;;;;;;;4905154;28;19934;-63
2021/07/30 13:36:58;;;;;;;;;;;;;;;;;;4904151;28;20427;-68
2021/07/30 13:39:25;;;;;;;;;;;;;;;;;;4907122;28;20280;-66
2021/07/30 13:41:52;;;;;;;;;;;;;;;;;;4903689;28;19938;-67
2021/07/30 13:44:19;;;;;;;;;;;;;;;;;;4903875;28;19935;-67
2021/07/30 13:46:46;;;;;;;;;;;;;;;;;;4907930;28;20529;-68
2021/07/30 13:49:13;;;;;;;;;;;;;;;;;;4905458;28;20410;-68
2021/07/30 13:51:40;;;;;;;;;;;;;;;;;;4912019;28;19938;-66
2021/07/30 13:54:07;;;;;;;;;;;;;;;;;;4907113;28;19978;-66
2021/07/30 13:56:34;;;;;;;;;;;;;;;;;;4908370;28;19927;-66
2021/07/30 13:59:01;;;;;;;;;;;;;;;;;;4908516;28;19932;-66
2021/07/30 14:01:28;;;;;;;;;;;;;;;;;;4905570;28;19934;-66
2021/07/30 14:03:55;;;;;;;;;;;;;;;;;;4906432;28;20327;-66
2021/07/30 14:06:21;;;;;;;;;;;;;;;;;;4902461;28;19934;-69
2021/07/30 14:08:48;;;;;;;;;;;;;;;;;;4905179;28;19927;-65
2021/07/30 14:11:15;;;;;;;;;;;;;;;;;;4905549;28;19935;-65
2021/07/30 14:13:42;;;;;;;;;;;;;;;;;;4699750;28;20167;-64
2021/07/30 14:16:10;;;;;;;;;;;;;;;;;;4731491;28;20334;-65
2021/07/30 14:18:37;;;;;;;;;;;;;;;;;;4764429;28;20130;-65
2021/07/30 14:21:03;;;;;;;;;;;;;;;;;;4908977;28;19931;-65
2021/07/30 14:23:30;;;;;;;;;;;;;;;;;;4906884;28;19927;-65
2021/07/30 14:25:57;;;;;;;;;;;;;;;;;;4914953;28;19928;-65
2021/07/30 14:28:24;;;;;;;;;;;;;;;;;;4903090;28;19941;-65
2021/07/30 14:30:51;;;;;;;;;;;;;;;;;;4912548;28;20107;-65
2021/07/30 14:33:18;;;;;;;;;;;;;;;;;;4912279;28;20396;-65
2021/07/30 14:35:45;;;;;;;;;;;;;;;;;;4930215;28;19935;-66
2021/07/30 14:38:12;;;;;;;;;;;;;;;;;;4918512;28;19938;-66
2021/07/30 14:40:39;;;;;;;;;;;;;;;;;;4913304;28;19935;-66
2021/07/30 14:43:06;;;;;;;;;;;;;;;;;;4915407;28;19998;-66
2021/07/30 14:45:33;;;;;;;;;;;;;;;;;;4915816;28;19934;-66
2021/07/30 14:48:02;;;;;;;;;;;;;;;;;;4916529;28;19927;-66
2021/07/30 14:50:28;;;;;;;;;;;;;;;;;;4915886;28;19935;-66
2021/07/30 14:52:55;;;;;;;;;;;;;;;;;;4925055;28;19934;-66
2021/07/30 14:55:22;;;;;;;;;;;;;;;;;;4926682;28;20120;-66
2021/07/30 14:57:49;;;;;;;;;;;;;;;;;;4917307;28;19927;-66
2021/07/30 15:00:16;;;;;;;;;;;;;;;;;;4909959;28;19928;-66
2021/07/30 15:02:43;;;;;;;;;;;;;;;;;;4912045;28;19934;-66
2021/07/30 15:05:10;;;;;;;;;;;;;;;;;;4910080;28;20334;-67
2021/07/30 15:07:37;;;;;;;;;;;;;;;;;;4910963;28;20011;-65
2021/07/30 15:10:04;;;;;;;;;;;;;;;;;;4911778;28;19935;-64
2021/07/30 15:12:31;;;;;;;;;;;;;;;;;;4919111;28;20451;-65
2021/07/30 15:14:58;;;;;;;;;;;;;;;;;;4915462;28;20017;-65
2021/07/30 15:17:25;;;;;;;;;;;;;;;;;;4914776;29;19926;-66
2021/07/30 15:19:52;;;;;;;;;;;;;;;;;;4912612;28;20376;-65
2021/07/30 15:22:19;;;;;;;;;;;;;;;;;;4921643;28;19927;-65
2021/07/30 15:24:46;;;;;;;;;;;;;;;;;;4916493;28;20009;-68
2021/07/30 15:27:13;;;;;;;;;;;;;;;;;;4917672;28;19979;-66
2021/07/30 15:29:40;;;;;;;;;;;;;;;;;;4917564;28;19927;-66
2021/07/30 15:32:07;;;;;;;;;;;;;;;;;;4914599;29;20210;-65
2021/07/30 15:34:34;;;;;;;;;;;;;;;;;;4913643;28;19931;-65
2021/07/30 15:37:01;;;;;;;;;;;;;;;;;;4910738;29;19927;-65
2021/07/30 15:39:28;;;;;;;;;;;;;;;;;;4931688;23;19925;-67
2021/07/30 15:41:55;;;;;;;;;;;;;;;;;;5006575;28;20321;-67
2021/07/30 15:44:22;;;;;;;;;;;;;;;;;;5005437;28;20294;-67
2021/07/30 15:46:49;;;;;;;;;;;;;;;;;;5001639;28;19934;-66
2021/07/30 15:49:16;;;;;;;;;;;;;;;;;;5000732;28;19925;-67
2021/07/30 15:51:43;;;;;;;;;;;;;;;;;;4985023;28;19926;-67
2021/07/30 15:54:10;;;;;;;;;;;;;;;;;;4983571;28;19932;-66
2021/07/30 15:56:37;;;;;;;;;;;;;;;;;;4983605;28;20028;-66
2021/07/30 15:59:04;;;;;;;;;;;;;;;;;;4984687;28;19925;-65
2021/07/30 16:01:31;;;;;;;;;;;;;;;;;;4984016;28;20019;-65
2021/07/30 16:03:58;;;;;;;;;;;;;;;;;;4982554;28;20230;-66
2021/07/30 16:06:24;;;;;;;;;;;;;;;;;;4986203;28;19926;-66
2021/07/30 16:08:51;;;;;;;;;;;;;;;;;;4986732;28;19926;-66
2021/07/30 16:11:18;;;;;;;;;;;;;;;;;;4985213;28;19933;-66
2021/07/30 16:13:45;;;;;;;;;;;;;;;;;;4984896;28;20024;-66
2021/07/30 16:16:13;;;;;;;;;;;;;;;;;;4985712;28;19941;-66
2021/07/30 16:18:40;;;;;;;;;;;;;;;;;;4984530;28;20366;-66
2021/07/30 16:21:07;;;;;;;;;;;;;;;;;;4983872;28;19930;-65
2021/07/30 16:23:35;;;;;;;;;;;;;;;;;;4985848;28;20009;-66
2021/07/30 16:26:02;;;;;;;;;;;;;;;;;;4985095;28;20000;-65
2021/07/30 16:28:29;;;;;;;;;;;;;;;;;;4984735;28;19930;-66
2021/07/30 16:30:56;;;;;;;;;;;;;;;;;;4984212;28;19934;-67
2021/07/30 16:33:23;;;;;;;;;;;;;;;;;;4984606;28;19940;-67
2021/07/30 16:35:50;;;;;;;;;;;;;;;;;;4986807;28;19932;-67
2021/07/30 16:38:18;;;;;;;;;;;;;;;;;;4983569;28;20016;-67
2021/07/30 16:40:45;;;;;;;;;;;;;;;;;;4985482;28;20603;-67
2021/07/30 16:43:12;;;;;;;;;;;;;;;;;;4986225;28;19933;-67
2021/07/30 16:45:40;;;;;;;;;;;;;;;;;;4985353;28;20434;-68
2021/07/30 16:48:07;;;;;;;;;;;;;;;;;;4985028;28;19926;-67